Time;durP1;ratioP1;P1;durP2;ratioP2;P2;SDS_P1;SDS_P2;PMS_P1;PMS_P2;Temp;Humidity;BMP_temperature;BMP_pressure;BME280_temperature;BME280_humidity;BME280_pressure;Samples;Min_cycle;Max_cycle;Signal;HPM_P1;HPM_P2
2022/01/09 00:01:26;;;;;;;0.70;0.70;;;3.70;99.90;;;;;;5050912;28;20177;-79
2022/01/09 00:03:52;;;;;;;2.37;0.90;;;3.70;99.90;;;;;;5032584;28;20563;-79
2022/01/09 00:06:18;;;;;;;3.73;2.10;;;3.60;99.90;;;;;;5032646;28;20439;-78
2022/01/09 00:08:44;;;;;;;0.90;0.70;;;3.70;99.90;;;;;;5032226;28;20443;-78
2022/01/09 00:11:14;;;;;;;4.28;1.92;;;3.60;99.90;;;;;;5036663;28;20574;-77
2022/01/09 00:13:40;;;;;;;1.00;0.80;;;3.70;99.90;;;;;;5055262;28;20266;-78
2022/01/09 00:16:06;;;;;;;0.90;0.80;;;3.70;99.90;;;;;;5019919;28;20193;-77
2022/01/09 00:18:31;;;;;;;0.77;0.77;;;3.80;99.90;;;;;;5036753;28;20423;-77
2022/01/09 00:20:58;;;;;;;0.80;0.70;;;3.90;99.90;;;;;;5053937;28;20447;-78
2022/01/09 00:23:23;;;;;;;1.10;0.70;;;3.80;99.90;;;;;;5053863;28;20213;-76
2022/01/09 00:25:49;;;;;;;1.27;0.60;;;3.80;99.90;;;;;;5036423;28;20192;-78
2022/01/09 00:28:15;;;;;;;0.80;0.60;;;4.00;99.90;;;;;;5053769;28;20223;-77
2022/01/09 00:30:41;;;;;;;0.80;0.80;;;3.80;99.90;;;;;;5054325;28;20221;-77
2022/01/09 00:33:06;;;;;;;0.70;0.70;;;3.80;99.90;;;;;;5054387;28;20238;-77
2022/01/09 00:35:33;;;;;;;0.60;0.60;;;3.90;99.90;;;;;;5036601;28;20494;-77
2022/01/09 00:37:59;;;;;;;0.60;0.50;;;3.90;99.90;;;;;;5055249;28;20416;-78
2022/01/09 00:40:25;;;;;;;0.80;0.80;;;3.80;99.90;;;;;;5036647;28;20190;-78
2022/01/09 00:42:51;;;;;;;1.30;1.10;;;3.80;99.90;;;;;;5036692;28;20273;-77
2022/01/09 00:45:17;;;;;;;0.60;0.50;;;3.80;99.90;;;;;;5035975;28;20473;-76
2022/01/09 00:47:44;;;;;;;3.53;0.77;;;3.80;99.90;;;;;;5053273;28;20192;-76
2022/01/09 00:50:11;;;;;;;1.17;1.00;;;3.70;99.90;;;;;;5053049;28;20185;-77
2022/01/09 00:52:37;;;;;;;1.67;1.00;;;3.70;99.90;;;;;;5034672;28;20230;-77
2022/01/09 00:55:04;;;;;;;2.60;0.80;;;3.70;99.90;;;;;;5052587;28;20219;-77
2022/01/09 00:57:30;;;;;;;4.32;2.58;;;3.70;99.90;;;;;;5035199;28;20417;-77
2022/01/09 00:59:56;;;;;;;1.90;1.00;;;3.70;99.90;;;;;;5035265;28;20239;-76
2022/01/09 01:02:21;;;;;;;0.70;0.70;;;3.70;99.90;;;;;;5034628;28;20186;-77
2022/01/09 01:04:50;;;;;;;1.20;1.00;;;3.70;99.90;;;;;;5052675;28;20221;-78
2022/01/09 01:07:16;;;;;;;1.23;1.08;;;3.70;99.90;;;;;;5052456;28;20618;-77
2022/01/09 01:09:42;;;;;;;0.77;0.77;;;3.80;99.90;;;;;;5034300;28;20193;-77
2022/01/09 01:12:07;;;;;;;1.20;1.10;;;3.70;99.90;;;;;;5034250;28;20181;-77
2022/01/09 01:14:33;;;;;;;1.00;0.90;;;3.70;99.90;;;;;;5033776;28;20210;-78
2022/01/09 01:16:59;;;;;;;0.80;0.70;;;3.70;99.90;;;;;;5051700;28;20190;-77
2022/01/09 01:19:25;;;;;;;1.02;1.00;;;3.70;99.90;;;;;;5052444;28;20645;-78
2022/01/09 01:21:51;;;;;;;0.80;0.80;;;3.70;99.90;;;;;;5033144;28;20195;-76
2022/01/09 01:24:18;;;;;;;0.80;0.60;;;3.70;99.90;;;;;;5051717;28;20211;-77
2022/01/09 01:26:44;;;;;;;0.93;0.93;;;3.80;99.90;;;;;;5051501;28;20189;-76
2022/01/09 01:29:10;;;;;;;0.70;0.60;;;3.70;99.90;;;;;;5051761;28;20178;-78
2022/01/09 01:31:36;;;;;;;0.82;0.82;;;3.60;99.90;;;;;;5052216;28;20180;-76
2022/01/09 01:34:02;;;;;;;0.70;0.70;;;3.60;99.90;;;;;;5033040;28;20698;-76
2022/01/09 01:36:28;;;;;;;0.70;0.70;;;3.70;99.90;;;;;;5051469;28;20411;-77
2022/01/09 01:38:53;;;;;;;0.60;0.60;;;3.70;99.90;;;;;;5051635;28;20168;-77
2022/01/09 01:41:19;;;;;;;0.70;0.70;;;3.70;99.90;;;;;;5033371;28;20177;-77
2022/01/09 01:43:45;;;;;;;0.80;0.50;;;3.70;99.90;;;;;;5051234;28;20225;-75
2022/01/09 01:46:10;;;;;;;0.70;0.50;;;3.80;99.90;;;;;;5033330;28;20193;-75
2022/01/09 01:48:36;;;;;;;0.97;0.57;;;3.80;99.90;;;;;;5051361;28;20192;-76
2022/01/09 01:51:02;;;;;;;0.80;0.53;;;3.80;99.90;;;;;;5051436;28;20185;-75
2022/01/09 01:53:28;;;;;;;0.60;0.50;;;3.80;99.90;;;;;;5051296;28;20971;-76
2022/01/09 01:55:55;;;;;;;0.60;0.50;;;3.80;99.90;;;;;;5033224;28;20658;-75
2022/01/09 01:58:23;;;;;;;0.60;0.50;;;3.90;99.90;;;;;;5051125;28;20512;-75
2022/01/09 02:00:49;;;;;;;0.82;0.52;;;4.00;99.90;;;;;;5033223;28;20200;-76
2022/01/09 02:03:14;;;;;;;0.73;0.73;;;3.90;99.90;;;;;;5051373;28;20209;-76
2022/01/09 02:05:44;;;;;;;0.60;0.60;;;3.90;99.90;;;;;;5051781;28;20265;-75
2022/01/09 02:08:11;;;;;;;0.50;0.40;;;3.90;99.90;;;;;;5051224;28;20193;-75
2022/01/09 02:10:41;;;;;;;0.60;0.50;;;3.90;99.90;;;;;;5050996;28;20195;-76
2022/01/09 02:13:09;;;;;;;0.60;0.50;;;3.90;99.90;;;;;;5032985;28;20225;-77
2022/01/09 02:15:39;;;;;;;1.05;0.43;;;3.90;99.90;;;;;;5051846;28;20187;-77
2022/01/09 02:18:14;;;;;;;0.68;0.40;;;3.90;99.90;;;;;;5051034;28;20178;-77
2022/01/09 02:20:40;;;;;;;0.90;0.40;;;4.10;99.90;;;;;;5050837;28;20266;-76
2022/01/09 02:23:08;;;;;;;0.50;0.40;;;4.10;99.90;;;;;;5050945;28;20202;-76
2022/01/09 02:25:36;;;;;;;0.50;0.40;;;4.10;99.90;;;;;;5032584;28;20209;-75
2022/01/09 02:28:02;;;;;;;0.50;0.40;;;4.10;99.90;;;;;;5050846;28;20188;-77
2022/01/09 02:30:32;;;;;;;0.60;0.50;;;4.10;99.90;;;;;;5050404;28;20187;-76
2022/01/09 02:33:01;;;;;;;0.50;0.30;;;4.10;99.90;;;;;;5050337;28;20709;-76
2022/01/09 02:35:27;;;;;;;0.60;0.50;;;4.10;99.90;;;;;;5050504;28;20775;-76
2022/01/09 02:37:54;;;;;;;0.50;0.40;;;4.20;99.90;;;;;;5050414;28;20286;-76
2022/01/09 02:40:22;;;;;;;0.50;0.40;;;4.20;99.90;;;;;;5050612;28;20412;-77
2022/01/09 02:42:48;;;;;;;0.60;0.40;;;4.20;99.90;;;;;;5032498;28;20269;-76
2022/01/09 02:45:13;;;;;;;0.50;0.40;;;4.20;99.90;;;;;;5050380;28;20609;-76
2022/01/09 02:47:39;;;;;;;0.60;0.40;;;4.20;99.90;;;;;;5050467;28;20419;-75
2022/01/09 02:50:27;;;;;;;0.50;0.40;;;4.20;99.90;;;;;;5032543;28;20940;-75
2022/01/09 02:52:57;;;;;;;0.40;0.30;;;4.20;99.90;;;;;;5050229;28;20214;-75
2022/01/09 02:55:24;;;;;;;0.50;0.40;;;4.20;99.90;;;;;;5032838;28;20192;-73
2022/01/09 02:57:55;;;;;;;0.50;0.40;;;4.20;99.90;;;;;;5050300;28;20187;-75
2022/01/09 03:00:24;;;;;;;0.70;0.70;;;4.10;99.90;;;;;;5032112;28;20268;-75
2022/01/09 03:02:50;;;;;;;0.50;0.40;;;4.10;99.90;;;;;;5049830;28;20182;-75
2022/01/09 03:05:16;;;;;;;0.70;0.50;;;4.20;99.90;;;;;;5031934;28;20191;-75
2022/01/09 03:07:43;;;;;;;0.60;0.40;;;4.20;99.90;;;;;;5031785;28;20204;-75
2022/01/09 03:10:11;;;;;;;0.50;0.30;;;4.20;99.90;;;;;;5049770;28;20425;-76
2022/01/09 03:12:37;;;;;;;0.60;0.40;;;4.20;99.90;;;;;;5049539;28;20270;-75
2022/01/09 03:15:04;;;;;;;0.57;0.40;;;4.40;99.90;;;;;;5049626;28;20340;-75
2022/01/09 03:17:30;;;;;;;0.63;0.40;;;4.30;99.90;;;;;;5049691;28;20681;-75
2022/01/09 03:19:56;;;;;;;0.50;0.30;;;4.30;99.90;;;;;;5049615;28;20259;-75
2022/01/09 03:22:21;;;;;;;0.90;0.43;;;4.40;99.90;;;;;;5049714;28;20265;-76
2022/01/09 03:24:49;;;;;;;0.50;0.30;;;4.40;99.90;;;;;;5049139;28;20224;-75
2022/01/09 03:27:15;;;;;;;0.60;0.40;;;4.50;99.90;;;;;;5049228;28;20190;-75
2022/01/09 03:29:41;;;;;;;0.50;0.30;;;4.50;99.90;;;;;;5049040;28;20218;-75
2022/01/09 03:32:07;;;;;;;0.50;0.30;;;4.50;99.90;;;;;;5049124;28;20465;-75
2022/01/09 03:34:33;;;;;;;0.50;0.32;;;4.60;99.90;;;;;;5031034;28;20534;-76
2022/01/09 03:36:59;;;;;;;0.40;0.30;;;4.60;99.90;;;;;;5049400;28;20180;-75
2022/01/09 03:39:24;;;;;;;0.57;0.40;;;4.60;99.90;;;;;;5049355;28;20517;-76
2022/01/09 03:41:50;;;;;;;0.50;0.30;;;4.70;99.90;;;;;;5049191;28;20210;-75
2022/01/09 03:44:17;;;;;;;0.53;0.30;;;4.70;99.90;;;;;;5048648;28;20206;-75
2022/01/09 03:46:42;;;;;;;0.50;0.30;;;4.80;99.90;;;;;;5031088;28;20242;-75
2022/01/09 03:49:08;;;;;;;0.70;0.40;;;4.80;99.90;;;;;;5048880;28;20927;-76
2022/01/09 03:51:37;;;;;;;0.50;0.30;;;4.90;99.90;;;;;;5048619;28;20186;-76
2022/01/09 03:54:04;;;;;;;0.47;0.30;;;5.00;99.90;;;;;;5048429;28;20312;-76
2022/01/09 03:56:30;;;;;;;0.50;0.30;;;5.10;99.90;;;;;;5048516;28;20406;-76
2022/01/09 03:58:55;;;;;;;0.40;0.27;;;5.20;99.90;;;;;;5048529;28;20416;-76
2022/01/09 04:01:21;;;;;;;0.50;0.30;;;5.30;99.90;;;;;;5030564;28;20186;-76
2022/01/09 04:03:47;;;;;;;0.40;0.30;;;5.40;99.90;;;;;;5048285;28;20211;-76
2022/01/09 04:06:12;;;;;;;0.50;0.30;;;5.40;99.90;;;;;;5030425;28;20179;-76
2022/01/09 04:08:38;;;;;;;0.90;0.30;;;5.40;99.90;;;;;;5030296;28;20214;-76
2022/01/09 04:11:06;;;;;;;0.50;0.30;;;5.40;99.90;;;;;;5048250;28;20321;-76
2022/01/09 04:13:32;;;;;;;0.70;0.30;;;5.60;99.90;;;;;;5048151;28;21362;-76
2022/01/09 04:15:58;;;;;;;0.60;0.30;;;5.60;99.90;;;;;;5048451;28;20414;-76
2022/01/09 04:18:24;;;;;;;0.50;0.30;;;5.70;99.90;;;;;;5048134;28;20452;-76
2022/01/09 04:20:51;;;;;;;2.30;0.30;;;5.70;99.90;;;;;;5048084;28;20180;-76
2022/01/09 04:23:19;;;;;;;0.50;0.20;;;5.70;99.90;;;;;;5048047;28;21220;-76
2022/01/09 04:25:45;;;;;;;0.50;0.30;;;5.80;99.90;;;;;;5030019;28;20426;-76
2022/01/09 04:28:12;;;;;;;0.50;0.30;;;5.60;99.90;;;;;;5048047;28;20230;-76
2022/01/09 04:30:38;;;;;;;0.50;0.30;;;5.60;99.90;;;;;;5048160;28;20649;-75
2022/01/09 04:33:04;;;;;;;0.50;0.30;;;5.60;99.90;;;;;;5029993;28;20438;-76
2022/01/09 04:35:29;;;;;;;0.60;0.30;;;5.60;99.90;;;;;;5048072;28;20656;-75
2022/01/09 04:37:56;;;;;;;0.50;0.30;;;5.60;99.90;;;;;;5048018;28;20420;-76
2022/01/09 04:40:22;;;;;;;0.50;0.20;;;5.50;99.90;;;;;;5030456;28;20190;-76
2022/01/09 04:42:53;;;;;;;0.50;0.30;;;5.40;99.90;;;;;;5048063;28;20417;-76
2022/01/09 04:45:20;;;;;;;0.60;0.30;;;5.30;99.90;;;;;;5048081;28;20187;-76
2022/01/09 04:47:48;;;;;;;0.85;0.30;;;5.20;99.90;;;;;;5030092;28;20570;-76
2022/01/09 04:50:26;;;;;;;0.50;0.20;;;5.10;99.90;;;;;;5030233;28;20183;-76
2022/01/09 04:52:59;;;;;;;0.40;0.30;;;5.00;99.90;;;;;;5048158;28;20510;-75
2022/01/09 04:55:26;;;;;;;0.50;0.30;;;4.80;99.90;;;;;;5049655;28;20804;-77
2022/01/09 04:57:51;;;;;;;0.50;0.30;;;4.70;99.90;;;;;;5054955;28;20184;-77
2022/01/09 05:00:18;;;;;;;0.50;0.30;;;4.60;99.90;;;;;;5053295;28;20409;-77
2022/01/09 05:02:44;;;;;;;0.70;0.30;;;4.50;99.90;;;;;;5052087;28;20665;-77
2022/01/09 05:05:10;;;;;;;1.83;0.30;;;4.50;99.90;;;;;;5053868;28;20453;-78
2022/01/09 05:07:37;;;;;;;0.50;0.30;;;4.20;99.90;;;;;;5036052;28;20225;-77
2022/01/09 05:10:08;;;;;;;0.50;0.30;;;4.30;99.90;;;;;;5036059;28;20199;-77
2022/01/09 05:12:33;;;;;;;0.40;0.30;;;4.00;99.90;;;;;;5051965;28;20197;-77
2022/01/09 05:14:59;;;;;;;0.40;0.20;;;4.00;99.90;;;;;;5051616;28;20472;-76
2022/01/09 05:17:25;;;;;;;0.50;0.30;;;4.10;99.90;;;;;;5051221;28;20223;-76
2022/01/09 05:19:52;;;;;;;0.40;0.27;;;3.80;99.90;;;;;;5051360;28;20438;-76
2022/01/09 05:22:19;;;;;;;0.60;0.30;;;3.70;99.90;;;;;;5033238;28;20526;-77
2022/01/09 05:24:44;;;;;;;0.40;0.30;;;3.60;99.90;;;;;;5033295;28;20229;-77
2022/01/09 05:27:10;;;;;;;0.50;0.30;;;3.60;99.90;;;;;;5051591;28;20183;-77
2022/01/09 05:29:36;;;;;;;0.40;0.30;;;3.60;99.90;;;;;;5051264;28;20427;-76
2022/01/09 05:32:02;;;;;;;0.40;0.30;;;3.50;99.90;;;;;;5033562;28;20181;-76
2022/01/09 05:34:27;;;;;;;0.40;0.20;;;3.40;99.90;;;;;;5050831;28;20479;-77
2022/01/09 05:36:53;;;;;;;0.40;0.20;;;3.40;99.90;;;;;;5051628;28;20434;-77
2022/01/09 05:39:19;;;;;;;0.47;0.30;;;3.30;99.90;;;;;;5033536;28;20287;-77
2022/01/09 05:41:46;;;;;;;0.40;0.30;;;3.20;99.90;;;;;;5033278;28;20189;-76
2022/01/09 05:44:12;;;;;;;0.40;0.30;;;3.10;99.90;;;;;;5033354;28;20286;-77
2022/01/09 05:46:37;;;;;;;0.40;0.20;;;3.00;99.90;;;;;;5051674;28;20308;-77
2022/01/09 05:49:03;;;;;;;0.50;0.30;;;3.00;99.90;;;;;;5051176;28;20240;-76
2022/01/09 05:51:29;;;;;;;0.40;0.30;;;2.90;99.90;;;;;;5034464;28;20188;-77
2022/01/09 05:53:54;;;;;;;0.40;0.30;;;2.70;99.90;;;;;;5052161;28;20210;-76
2022/01/09 05:56:20;;;;;;;0.47;0.30;;;2.70;99.90;;;;;;5017101;28;20634;-76
2022/01/09 05:58:46;;;;;;;0.40;0.30;;;2.70;99.90;;;;;;5033730;28;20180;-76
2022/01/09 06:01:11;;;;;;;0.60;0.30;;;2.60;99.90;;;;;;5035260;28;20189;-77
2022/01/09 06:03:37;;;;;;;0.40;0.30;;;2.70;99.90;;;;;;5054160;28;20229;-77
2022/01/09 06:06:03;;;;;;;0.50;0.30;;;2.50;99.90;;;;;;5035761;28;20953;-77
2022/01/09 06:08:28;;;;;;;0.40;0.30;;;2.40;99.90;;;;;;5053103;28;20183;-76
2022/01/09 06:10:54;;;;;;;0.40;0.30;;;2.40;99.90;;;;;;5053981;28;20646;-78
2022/01/09 06:13:20;;;;;;;0.40;0.30;;;2.40;99.90;;;;;;5035438;28;20251;-78
2022/01/09 06:15:45;;;;;;;0.50;0.30;;;2.40;99.90;;;;;;5052433;28;20190;-77
2022/01/09 06:18:14;;;;;;;0.40;0.20;;;2.50;99.90;;;;;;5051161;28;20252;-77
2022/01/09 06:20:40;;;;;;;0.40;0.30;;;2.40;99.90;;;;;;5051307;28;20175;-79
2022/01/09 06:23:06;;;;;;;0.40;0.30;;;2.40;99.90;;;;;;5001419;28;20282;-77
2022/01/09 06:25:31;;;;;;;0.40;0.30;;;2.40;99.90;;;;;;5053703;28;20442;-78
2022/01/09 06:27:57;;;;;;;0.40;0.30;;;2.40;99.90;;;;;;5051843;28;20891;-76
2022/01/09 06:30:22;;;;;;;0.40;0.20;;;2.50;99.90;;;;;;5051166;28;20196;-77
2022/01/09 06:32:48;;;;;;;0.40;0.27;;;2.50;99.90;;;;;;5051833;28;20645;-77
2022/01/09 06:35:14;;;;;;;0.40;0.30;;;2.40;99.90;;;;;;5032651;28;20235;-77
2022/01/09 06:37:39;;;;;;;0.40;0.30;;;2.50;99.90;;;;;;5053282;28;20673;-75
2022/01/09 06:40:06;;;;;;;0.40;0.20;;;2.50;99.90;;;;;;5018201;28;20217;-77
2022/01/09 06:42:31;;;;;;;0.40;0.30;;;2.50;99.90;;;;;;5033792;28;20630;-76
2022/01/09 06:44:57;;;;;;;0.40;0.30;;;2.50;99.90;;;;;;5049819;28;20277;-74
2022/01/09 06:47:22;;;;;;;0.60;0.40;;;2.40;99.90;;;;;;5049821;28;20181;-73
2022/01/09 06:49:48;;;;;;;0.50;0.30;;;2.50;99.90;;;;;;5049683;28;20292;-74
2022/01/09 06:52:14;;;;;;;0.40;0.30;;;2.50;99.90;;;;;;5049848;28;20275;-74
2022/01/09 06:54:40;;;;;;;0.40;0.20;;;2.40;99.90;;;;;;5049470;28;20226;-73
2022/01/09 06:57:06;;;;;;;0.40;0.30;;;2.40;99.90;;;;;;5031362;28;20184;-74
2022/01/09 06:59:31;;;;;;;0.40;0.30;;;2.40;99.90;;;;;;5049521;28;20404;-74
2022/01/09 07:01:57;;;;;;;1.87;0.30;;;2.50;99.90;;;;;;5049583;28;20419;-73
2022/01/09 07:04:23;;;;;;;0.40;0.30;;;2.60;99.90;;;;;;5049337;28;20443;-73
2022/01/09 07:06:48;;;;;;;0.40;0.30;;;2.60;99.90;;;;;;5031626;28;20188;-73
2022/01/09 07:09:14;;;;;;;0.40;0.30;;;2.60;99.90;;;;;;5049859;28;20188;-73
2022/01/09 07:11:40;;;;;;;0.50;0.30;;;2.50;99.90;;;;;;5049331;28;20184;-73
2022/01/09 07:14:06;;;;;;;0.50;0.30;;;2.60;99.90;;;;;;5049105;28;20246;-73
2022/01/09 07:16:32;;;;;;;0.40;0.20;;;2.60;99.90;;;;;;5049222;28;20187;-73
2022/01/09 07:18:57;;;;;;;0.40;0.25;;;2.50;99.90;;;;;;5048309;28;20184;-73
2022/01/09 07:21:24;;;;;;;0.40;0.30;;;2.60;99.90;;;;;;5049077;28;20181;-73
2022/01/09 07:23:50;;;;;;;0.50;0.30;;;2.60;99.90;;;;;;5048969;28;20207;-73
2022/01/09 07:26:15;;;;;;;0.40;0.30;;;2.50;99.90;;;;;;5049037;28;20192;-73
2022/01/09 07:28:41;;;;;;;0.40;0.20;;;2.60;99.90;;;;;;5048898;28;20242;-73
2022/01/09 07:31:06;;;;;;;0.40;0.30;;;2.50;99.90;;;;;;5049038;28;20214;-73
2022/01/09 07:33:32;;;;;;;0.60;0.30;;;2.60;99.90;;;;;;5049042;28;20215;-73
2022/01/09 07:35:58;;;;;;;0.40;0.30;;;2.50;99.90;;;;;;5048964;28;20218;-73
2022/01/09 07:38:23;;;;;;;0.60;0.40;;;2.50;99.90;;;;;;5048862;28;20714;-73
2022/01/09 07:40:50;;;;;;;0.50;0.40;;;2.50;99.90;;;;;;5048770;28;20657;-73
2022/01/09 07:43:15;;;;;;;0.77;0.30;;;2.50;99.90;;;;;;5048573;28;20198;-73
2022/01/09 07:45:41;;;;;;;0.50;0.30;;;2.50;99.90;;;;;;5048625;28;20188;-73
2022/01/09 07:48:07;;;;;;;0.70;0.30;;;2.50;99.90;;;;;;5048551;28;20267;-73
2022/01/09 07:50:33;;;;;;;0.50;0.30;;;2.50;99.90;;;;;;5048579;28;20411;-73
2022/01/09 07:52:59;;;;;;;0.50;0.30;;;2.40;99.90;;;;;;5048527;28;20205;-74
2022/01/09 07:55:25;;;;;;;1.05;0.47;;;2.50;99.90;;;;;;5048550;28;20231;-73
2022/01/09 07:57:51;;;;;;;0.50;0.30;;;2.40;99.90;;;;;;5049205;28;20254;-72
2022/01/09 08:00:19;;;;;;;0.60;0.40;;;2.50;99.90;;;;;;5048640;28;20181;-73
2022/01/09 08:02:45;;;;;;;1.98;0.50;;;2.50;99.90;;;;;;5030247;28;20192;-73
2022/01/09 08:05:12;;;;;;;1.00;0.47;;;2.50;99.90;;;;;;5048450;28;20552;-73
2022/01/09 08:07:38;;;;;;;1.38;0.70;;;2.50;99.90;;;;;;5048508;28;20214;-73
2022/01/09 08:10:05;;;;;;;0.60;0.50;;;2.50;99.90;;;;;;5013862;28;20208;-73
2022/01/09 08:12:30;;;;;;;1.30;0.52;;;2.60;99.90;;;;;;5048348;28;20189;-73
2022/01/09 08:14:56;;;;;;;0.63;0.50;;;2.60;99.90;;;;;;5048223;28;20224;-73
2022/01/09 08:17:22;;;;;;;2.17;0.50;;;2.60;99.90;;;;;;5048305;28;20263;-73
2022/01/09 08:19:48;;;;;;;1.80;0.50;;;2.70;99.90;;;;;;5048299;28;21047;-73
2022/01/09 08:22:14;;;;;;;1.70;0.70;;;2.70;99.90;;;;;;5048885;28;20441;-73
2022/01/09 08:24:39;;;;;;;0.60;0.50;;;2.70;99.90;;;;;;5048297;28;20197;-72
2022/01/09 08:27:07;;;;;;;6.00;0.77;;;2.70;99.90;;;;;;5047924;28;20893;-73
2022/01/09 08:29:33;;;;;;;1.55;0.60;;;2.70;99.90;;;;;;5047732;28;20267;-73
2022/01/09 08:31:59;;;;;;;1.67;0.70;;;2.60;99.90;;;;;;5051207;28;20689;-72
2022/01/09 08:34:24;;;;;;;3.17;0.80;;;2.70;99.90;;;;;;5033035;28;20224;-73
2022/01/09 08:36:50;;;;;;;1.77;0.70;;;2.70;99.90;;;;;;5050805;28;20192;-74
2022/01/09 08:39:17;;;;;;;4.97;0.70;;;2.70;99.90;;;;;;5050501;28;20205;-73
2022/01/09 08:41:43;;;;;;;3.65;0.70;;;2.80;99.90;;;;;;5051143;28;20174;-73
2022/01/09 08:44:09;;;;;;;3.63;0.50;;;2.80;99.90;;;;;;5050488;28;20284;-73
2022/01/09 08:46:36;;;;;;;1.33;0.60;;;2.80;99.90;;;;;;5050556;28;20238;-73
2022/01/09 08:49:03;;;;;;;1.00;0.50;;;2.80;99.90;;;;;;5050408;28;20417;-73
2022/01/09 08:51:29;;;;;;;1.77;0.57;;;2.80;99.90;;;;;;5050782;28;20222;-73
2022/01/09 08:53:56;;;;;;;4.40;1.00;;;2.80;99.90;;;;;;5050107;28;20288;-73
2022/01/09 08:56:23;;;;;;;1.83;0.60;;;2.80;99.90;;;;;;5050138;28;20567;-73
2022/01/09 08:58:49;;;;;;;3.20;0.90;;;2.80;99.90;;;;;;5050330;28;20188;-73
2022/01/09 09:01:16;;;;;;;2.78;0.60;;;2.90;99.90;;;;;;5032451;28;20176;-73
2022/01/09 09:03:41;;;;;;;3.55;0.60;;;3.00;99.90;;;;;;5050779;28;20975;-73
2022/01/09 09:06:12;;;;;;;1.00;0.70;;;3.00;99.90;;;;;;5050532;28;20697;-73
2022/01/09 09:08:39;;;;;;;7.22;0.63;;;3.10;99.90;;;;;;5050488;28;20340;-73
2022/01/09 09:11:05;;;;;;;3.33;0.90;;;3.10;99.90;;;;;;5050039;28;20190;-73
2022/01/09 09:13:31;;;;;;;0.90;0.60;;;3.20;99.90;;;;;;5050057;28;20212;-73
2022/01/09 09:15:57;;;;;;;2.43;0.70;;;3.20;99.90;;;;;;5049711;28;20188;-74
2022/01/09 09:18:23;;;;;;;1.95;1.00;;;3.30;99.90;;;;;;5050814;28;20463;-75
2022/01/09 09:20:49;;;;;;;4.80;0.90;;;3.50;99.90;;;;;;5031648;28;20205;-75
2022/01/09 09:23:15;;;;;;;3.93;0.97;;;3.70;99.90;;;;;;5031375;28;20221;-76
2022/01/09 09:25:40;;;;;;;3.13;0.90;;;3.70;99.90;;;;;;5031370;28;20261;-75
2022/01/09 09:28:06;;;;;;;1.00;0.53;;;3.80;99.90;;;;;;5031744;28;20256;-77
2022/01/09 09:30:32;;;;;;;2.70;1.10;;;3.90;99.90;;;;;;5031513;28;20186;-76
2022/01/09 09:32:57;;;;;;;5.73;0.80;;;4.00;99.90;;;;;;5049391;28;20205;-77
2022/01/09 09:35:23;;;;;;;3.13;1.10;;;4.00;99.90;;;;;;5031244;28;20243;-76
2022/01/09 09:37:49;;;;;;;2.30;0.80;;;4.10;99.90;;;;;;5031394;28;20188;-76
2022/01/09 09:40:15;;;;;;;7.68;1.20;;;4.30;99.90;;;;;;5049264;28;20178;-76
2022/01/09 09:42:41;;;;;;;4.20;0.90;;;4.60;99.90;;;;;;5048244;28;20193;-76
2022/01/09 09:45:09;;;;;;;6.22;1.38;;;4.90;99.90;;;;;;5049118;28;20177;-75
2022/01/09 09:47:37;;;;;;;3.17;1.10;;;5.50;99.90;;;;;;5048800;28;20666;-75
2022/01/09 09:50:05;;;;;;;4.03;1.10;;;5.70;99.90;;;;;;5049442;28;20202;-76
2022/01/09 09:52:31;;;;;;;5.23;1.30;;;6.20;99.90;;;;;;5049176;28;20197;-75
2022/01/09 09:54:57;;;;;;;7.53;1.57;;;6.40;99.90;;;;;;5048907;28;20994;-74
2022/01/09 09:57:23;;;;;;;5.43;1.30;;;5.90;99.90;;;;;;5031217;28;20448;-74
2022/01/09 09:59:57;;;;;;;5.47;0.80;;;5.70;99.90;;;;;;5031019;28;20417;-76
2022/01/09 10:02:23;;;;;;;6.17;1.37;;;5.40;99.90;;;;;;5048778;28;20410;-75
2022/01/09 10:05:01;;;;;;;2.20;1.00;;;5.00;99.90;;;;;;5030512;28;20910;-75
2022/01/09 10:07:28;;;;;;;4.37;1.20;;;4.90;99.90;;;;;;5048873;28;20871;-76
2022/01/09 10:09:57;;;;;;;1.90;0.77;;;4.80;99.90;;;;;;5048652;28;20426;-76
2022/01/09 10:12:33;;;;;;;2.93;1.00;;;4.60;99.90;;;;;;5031023;28;21232;-76
2022/01/09 10:15:00;;;;;;;1.93;0.90;;;4.60;99.90;;;;;;5049030;28;20472;-76
2022/01/09 10:17:27;;;;;;;1.45;0.68;;;4.60;99.90;;;;;;5049111;28;20775;-76
2022/01/09 10:19:57;;;;;;;1.87;0.60;;;4.60;99.90;;;;;;5031251;28;20656;-75
2022/01/09 10:22:36;;;;;;;4.30;1.50;;;4.30;99.90;;;;;;5049210;28;20409;-75
2022/01/09 10:25:25;;;;;;;4.07;0.73;;;4.50;99.90;;;;;;5031093;28;20192;-74
2022/01/09 10:27:59;;;;;;;4.65;1.08;;;4.40;99.90;;;;;;5049251;28;20423;-75
2022/01/09 10:30:41;;;;;;;5.28;1.00;;;4.40;99.90;;;;;;5049369;28;20217;-74
2022/01/09 10:33:12;;;;;;;7.00;1.10;;;4.20;99.90;;;;;;5049449;28;20200;-73
2022/01/09 10:35:41;;;;;;;5.18;1.50;;;4.40;99.90;;;;;;5031227;28;20229;-75
2022/01/09 10:38:15;;;;;;;4.22;1.17;;;4.50;99.90;;;;;;5049395;28;20187;-75
2022/01/09 10:40:43;;;;;;;3.95;0.93;;;4.40;99.90;;;;;;5049477;28;20200;-75
2022/01/09 10:43:12;;;;;;;30.15;12.98;;;4.20;99.90;;;;;;5031362;28;20292;-75
2022/01/09 10:45:41;;;;;;;4.87;1.17;;;4.40;99.90;;;;;;5031864;28;20198;-74
2022/01/09 10:48:16;;;;;;;1.92;0.73;;;4.30;99.90;;;;;;5031718;28;20909;-75
2022/01/09 10:50:43;;;;;;;3.88;1.02;;;4.80;99.90;;;;;;5049401;28;20674;-75
2022/01/09 10:53:11;;;;;;;2.53;1.07;;;4.80;99.90;;;;;;5049126;28;20206;-75
2022/01/09 10:55:37;;;;;;;4.77;1.93;;;5.10;99.90;;;;;;5049213;28;20473;-75
2022/01/09 10:58:18;;;;;;;6.03;1.70;;;5.30;99.90;;;;;;5031521;28;20474;-74
2022/01/09 11:00:45;;;;;;;3.55;1.10;;;5.20;99.90;;;;;;5049203;28;20227;-75
2022/01/09 11:03:10;;;;;;;6.57;1.50;;;5.20;99.90;;;;;;5031209;28;20212;-75
2022/01/09 11:05:37;;;;;;;5.53;1.50;;;5.00;99.90;;;;;;5049416;28;20512;-75
2022/01/09 11:08:04;;;;;;;5.43;0.97;;;5.00;99.90;;;;;;5014842;28;20194;-75
2022/01/09 11:10:31;;;;;;;4.70;1.20;;;4.70;99.90;;;;;;5048851;28;20429;-74
2022/01/09 11:12:59;;;;;;;2.60;0.90;;;4.70;99.90;;;;;;5048492;28;20238;-75
2022/01/09 11:15:29;;;;;;;5.27;1.57;;;4.60;99.90;;;;;;5048389;28;20548;-75
2022/01/09 11:18:01;;;;;;;2.90;1.67;;;4.80;99.90;;;;;;5030168;28;20436;-74
2022/01/09 11:20:26;;;;;;;19.43;6.97;;;4.70;99.90;;;;;;5048192;28;20468;-75
2022/01/09 11:22:54;;;;;;;28.60;13.73;;;4.60;99.90;;;;;;5047942;28;20417;-75
2022/01/09 11:25:35;;;;;;;10.43;4.87;;;4.40;99.90;;;;;;5030052;28;21042;-74
2022/01/09 11:28:15;;;;;;;6.80;2.30;;;4.50;99.90;;;;;;5048248;28;20442;-75
2022/01/09 11:30:49;;;;;;;11.65;5.03;;;4.50;99.90;;;;;;5047755;28;20446;-75
2022/01/09 11:33:56;;;;;;;7.65;3.70;;;4.40;99.90;;;;;;5048488;28;20240;-76
2022/01/09 11:36:45;;;;;;;6.88;2.58;;;4.40;99.90;;;;;;5048286;28;20202;-75
2022/01/09 11:39:35;;;;;;;2.65;2.08;;;4.50;99.90;;;;;;5018751;28;20196;-75
2022/01/09 11:42:12;;;;;;;7.07;1.80;;;4.50;99.90;;;;;;5047404;28;20182;-74
2022/01/09 11:44:52;;;;;;;5.75;1.70;;;4.40;99.90;;;;;;5029107;28;20455;-75
2022/01/09 11:47:19;;;;;;;3.67;1.13;;;4.40;99.90;;;;;;5047355;28;20635;-75
2022/01/09 11:49:54;;;;;;;2.00;0.90;;;4.30;99.90;;;;;;5047184;28;20270;-75
2022/01/09 11:52:28;;;;;;;18.33;5.68;;;4.30;99.90;;;;;;5047133;28;20201;-75
2022/01/09 11:54:54;;;;;;;11.00;6.77;;;4.20;99.90;;;;;;5046978;28;20246;-75
2022/01/09 11:57:44;;;;;;;12.53;5.97;;;4.20;99.90;;;;;;5047107;28;20437;-75
2022/01/09 12:00:38;;;;;;;35.60;19.20;;;4.30;99.90;;;;;;5028953;28;20434;-75
2022/01/09 12:03:34;;;;;;;16.73;5.47;;;4.30;99.90;;;;;;5046966;28;20200;-74
2022/01/09 12:06:10;;;;;;;8.30;2.20;;;4.20;99.90;;;;;;5044397;28;20621;-75
2022/01/09 12:08:53;;;;;;;4.87;2.00;;;4.20;99.90;;;;;;5046951;28;20188;-75
2022/01/09 12:11:19;;;;;;;113.90;45.77;;;4.20;99.90;;;;;;5046561;28;20517;-75
2022/01/09 12:13:47;;;;;;;7.43;3.53;;;4.30;99.90;;;;;;5028614;28;20464;-75
2022/01/09 12:16:44;;;;;;;2.03;1.10;;;4.30;99.90;;;;;;5046793;28;20729;-75
2022/01/09 12:19:10;;;;;;;9.80;2.53;;;4.20;99.90;;;;;;5046712;28;20778;-75
2022/01/09 12:21:38;;;;;;;5.10;1.43;;;4.40;99.90;;;;;;5046711;28;20190;-76
2022/01/09 12:24:42;;;;;;;7.70;1.50;;;4.50;99.90;;;;;;5046802;28;20213;-76
2022/01/09 12:27:38;;;;;;;6.80;2.00;;;4.50;99.90;;;;;;5046739;28;20191;-76
2022/01/09 12:30:05;;;;;;;3.13;0.90;;;4.60;99.90;;;;;;5046809;28;20910;-76
2022/01/09 12:32:43;;;;;;;4.75;1.27;;;4.60;99.90;;;;;;5028733;28;20890;-76
2022/01/09 12:35:20;;;;;;;3.03;1.57;;;4.60;99.90;;;;;;5046641;28;20317;-76
2022/01/09 12:37:48;;;;;;;6.67;1.53;;;4.50;99.90;;;;;;5046630;28;20413;-76
2022/01/09 12:40:16;;;;;;;6.18;1.20;;;4.50;99.90;;;;;;5028845;28;20504;-76
2022/01/09 12:42:46;;;;;;;2.28;1.00;;;4.50;99.90;;;;;;5046648;28;20183;-76
2022/01/09 12:45:13;;;;;;;9.97;1.97;;;4.60;99.90;;;;;;5046859;28;20184;-76
2022/01/09 12:47:40;;;;;;;2.75;0.85;;;4.40;99.90;;;;;;5028740;28;20429;-76
2022/01/09 12:50:06;;;;;;;2.53;1.00;;;4.40;99.90;;;;;;5029190;28;20286;-76
2022/01/09 12:52:32;;;;;;;3.13;0.80;;;4.40;99.90;;;;;;5047172;28;20270;-76
2022/01/09 12:55:09;;;;;;;2.93;1.13;;;4.40;99.90;;;;;;5046327;28;20488;-76
2022/01/09 12:57:55;;;;;;;1.75;0.90;;;4.20;99.90;;;;;;5047057;28;20592;-76
2022/01/09 13:00:29;;;;;;;2.08;0.90;;;4.20;99.90;;;;;;5047077;28;20206;-76